createdAt,value
2022-12-23T00:00:10.666Z,0.85
2022-12-23T00:02:13.518Z,0.63
2022-12-23T00:04:17.135Z,0.65
2022-12-23T00:06:22.337Z,0.68
2022-12-23T00:08:28.488Z,0.63
2022-12-23T00:10:37.750Z,0.82
2022-12-23T00:12:58.216Z,0.70
2022-12-23T00:15:06.552Z,0.85
2022-12-23T00:17:21.559Z,0.90
2022-12-23T00:19:26.652Z,0.77
2022-12-23T00:21:29.324Z,1.08
2022-12-23T00:23:36.102Z,0.63
2022-12-23T00:25:45.060Z,0.90
2022-12-23T00:28:01.910Z,0.80
2022-12-23T00:30:07.469Z,0.82
2022-12-23T00:32:10.897Z,0.77
2022-12-23T00:34:15.376Z,0.80
2022-12-23T00:36:21.203Z,1.00
2022-12-23T00:38:39.114Z,1.00
2022-12-23T00:41:07.472Z,0.80
2022-12-23T00:43:10.201Z,0.77
2022-12-23T00:45:16.722Z,0.60
2022-12-23T00:47:33.869Z,0.70
2022-12-23T00:49:43.754Z,1.02
2022-12-23T00:51:48.024Z,0.68
2022-12-23T00:53:52.102Z,0.60
2022-12-23T00:55:59.201Z,0.85
2022-12-23T00:58:02.003Z,1.00
2022-12-23T01:00:08.369Z,0.68
2022-12-23T01:02:42.150Z,0.70
2022-12-23T01:05:02.932Z,0.40
2022-12-23T01:07:06.394Z,0.88
2022-12-23T01:09:09.820Z,0.70
2022-12-23T01:11:14.978Z,0.68
2022-12-23T01:13:21.872Z,0.60
2022-12-23T01:15:27.612Z,0.65
2022-12-23T01:17:35.137Z,0.63
2022-12-23T01:19:45.819Z,0.57
2022-12-23T01:21:53.656Z,0.80
2022-12-23T01:24:01.474Z,0.65
2022-12-23T01:26:15.939Z,0.90
2022-12-23T01:28:22.558Z,0.70
2022-12-23T01:30:32.094Z,0.57
2022-12-23T01:32:41.328Z,0.55
2022-12-23T01:34:50.207Z,0.70
2022-12-23T01:36:56.311Z,0.82
2022-12-23T01:39:03.588Z,0.70
2022-12-23T01:41:11.310Z,0.70
2022-12-23T01:43:16.505Z,0.63
2022-12-23T01:45:23.134Z,0.80
2022-12-23T01:47:33.484Z,0.80
2022-12-23T01:49:36.718Z,0.90
2022-12-23T01:51:39.812Z,0.90
2022-12-23T01:53:51.192Z,0.90
2022-12-23T01:55:59.603Z,1.02
2022-12-23T01:58:09.120Z,0.80
2022-12-23T02:00:29.745Z,0.60
2022-12-23T02:02:55.991Z,0.90
2022-12-23T02:05:01.090Z,0.90
2022-12-23T02:07:24.583Z,0.80
2022-12-23T02:09:32.160Z,0.75
2022-12-23T02:12:04.937Z,0.60
2022-12-23T02:14:38.992Z,0.73
2022-12-23T02:16:51.052Z,0.50
2022-12-23T02:19:11.743Z,1.02
2022-12-23T02:21:26.226Z,0.60
2022-12-23T02:24:05.943Z,0.52
2022-12-23T02:26:27.392Z,0.60
2022-12-23T02:28:54.300Z,0.65
2022-12-23T02:31:11.226Z,0.55
2022-12-23T02:33:32.034Z,0.50
2022-12-23T02:35:42.064Z,0.70
2022-12-23T02:37:59.474Z,0.60
2022-12-23T02:40:11.002Z,0.70
2022-12-23T02:42:18.567Z,0.90
2022-12-23T02:44:31.020Z,0.30
2022-12-23T02:46:39.388Z,0.80
2022-12-23T02:48:50.538Z,0.60
2022-12-23T02:50:57.539Z,0.50
2022-12-23T02:53:07.347Z,0.60
2022-12-23T02:55:14.731Z,0.57
2022-12-23T02:57:24.005Z,0.57
2022-12-23T02:59:30.224Z,0.80
2022-12-23T03:01:36.866Z,0.52
2022-12-23T03:05:48.044Z,0.68
2022-12-23T03:07:54.777Z,0.70
2022-12-23T03:12:12.700Z,0.70
2022-12-23T03:14:38.038Z,0.60
2022-12-23T03:16:53.681Z,0.50
2022-12-23T03:19:13.194Z,0.70
2022-12-23T03:21:23.578Z,0.60
2022-12-23T03:23:31.735Z,0.55
2022-12-23T03:25:41.830Z,0.80
2022-12-23T03:27:51.255Z,0.60
2022-12-23T03:29:58.662Z,1.17
2022-12-23T03:32:10.075Z,0.60
2022-12-23T03:34:16.522Z,0.60
2022-12-23T03:36:24.120Z,0.47
2022-12-23T03:38:29.071Z,0.60
2022-12-23T03:40:38.223Z,0.40
2022-12-23T03:42:44.736Z,0.50
2022-12-23T03:45:11.115Z,0.40
2022-12-23T03:47:24.476Z,0.35
2022-12-23T03:49:35.534Z,0.40
2022-12-23T03:51:45.299Z,0.40
2022-12-23T03:53:53.132Z,0.70
2022-12-23T03:56:00.573Z,0.50
2022-12-23T03:58:11.155Z,0.43
2022-12-23T04:00:14.439Z,0.40
2022-12-23T04:02:26.547Z,0.40
2022-12-23T04:04:44.959Z,0.40
2022-12-23T04:06:58.660Z,0.50
2022-12-23T04:09:05.429Z,0.57
2022-12-23T04:13:12.473Z,0.50
2022-12-23T04:15:20.356Z,0.52
2022-12-23T04:17:24.364Z,0.70
2022-12-23T04:19:27.115Z,0.70
2022-12-23T04:21:30.223Z,0.60
2022-12-23T04:23:34.687Z,0.60
2022-12-23T04:25:42.493Z,0.70
2022-12-23T04:27:45.568Z,0.60
2022-12-23T04:29:48.527Z,0.60
2022-12-23T04:31:51.475Z,0.47
2022-12-23T04:33:55.531Z,0.50
2022-12-23T04:36:00.534Z,0.30
2022-12-23T04:38:03.177Z,0.60
2022-12-23T04:40:07.393Z,0.70
2022-12-23T04:42:11.620Z,0.60
2022-12-23T04:44:14.375Z,0.60
2022-12-23T04:46:17.041Z,0.40
2022-12-23T04:48:20.997Z,0.60
2022-12-23T04:50:25.902Z,0.57
2022-12-23T04:52:28.930Z,0.65
2022-12-23T04:54:34.228Z,0.63
2022-12-23T04:56:37.000Z,0.70
2022-12-23T04:58:41.790Z,0.77
2022-12-23T05:00:44.509Z,0.65
2022-12-23T05:02:48.118Z,0.63
2022-12-23T05:04:50.844Z,0.90
2022-12-23T05:06:54.827Z,0.70
2022-12-23T05:08:57.445Z,0.80
2022-12-23T05:11:08.276Z,0.65
2022-12-23T05:13:11.324Z,0.70
2022-12-23T05:15:15.044Z,0.77
2022-12-23T05:17:18.580Z,0.80
2022-12-23T05:19:21.271Z,0.80
2022-12-23T05:21:23.933Z,0.80
2022-12-23T05:23:27.900Z,0.80
2022-12-23T05:25:30.589Z,0.80
2022-12-23T05:27:33.257Z,0.90
2022-12-23T05:29:35.924Z,0.80
2022-12-23T05:31:40.885Z,0.90
2022-12-23T05:33:43.824Z,0.88
2022-12-23T05:35:46.561Z,1.05
2022-12-23T05:37:49.209Z,1.20
2022-12-23T05:39:53.233Z,0.90
2022-12-23T05:41:55.871Z,0.90
2022-12-23T05:43:58.509Z,1.13
2022-12-23T05:46:03.394Z,1.20
2022-12-23T05:48:06.556Z,1.70
2022-12-23T05:50:10.079Z,1.45
2022-12-23T05:52:15.659Z,1.27
2022-12-23T05:54:18.384Z,1.15
2022-12-23T05:56:22.378Z,0.93
2022-12-23T05:58:25.253Z,1.08
2022-12-23T06:00:28.257Z,1.15
2022-12-23T06:02:31.186Z,1.23
2022-12-23T06:04:34.104Z,1.20
2022-12-23T06:06:36.867Z,1.20
2022-12-23T06:08:40.619Z,0.88
2022-12-23T06:10:45.340Z,1.08
2022-12-23T06:12:49.321Z,1.00
2022-12-23T06:14:52.780Z,1.00
2022-12-23T06:16:55.558Z,1.10
2022-12-23T06:18:58.195Z,0.98
2022-12-23T06:21:03.746Z,0.90
2022-12-23T06:23:06.460Z,1.17
2022-12-23T06:25:09.889Z,1.17
2022-12-23T06:27:13.007Z,1.23
2022-12-23T06:29:17.184Z,1.10
2022-12-23T06:31:19.954Z,1.13
2022-12-23T06:33:22.914Z,1.30
2022-12-23T06:35:25.567Z,1.20
2022-12-23T06:37:28.278Z,1.40
2022-12-23T06:39:31.092Z,1.20
2022-12-23T06:41:33.885Z,1.13
2022-12-23T06:43:36.506Z,1.38
2022-12-23T06:45:40.633Z,1.50
2022-12-23T06:47:43.320Z,1.60
2022-12-23T06:49:45.899Z,1.63
2022-12-23T06:51:48.512Z,2.47
2022-12-23T06:53:51.145Z,2.70
2022-12-23T06:56:00.543Z,3.53
2022-12-23T06:58:03.256Z,3.17
2022-12-23T07:00:06.846Z,3.03
2022-12-23T07:02:12.930Z,2.40
2022-12-23T07:04:15.813Z,2.70
2022-12-23T07:06:18.423Z,2.83
2022-12-23T07:08:21.545Z,3.10
2022-12-23T07:10:24.328Z,2.97
2022-12-23T07:12:26.936Z,3.40
2022-12-23T07:14:29.596Z,3.58
2022-12-23T07:16:32.346Z,3.60
2022-12-23T07:18:36.823Z,2.78
2022-12-23T07:20:39.497Z,2.90
2022-12-23T07:22:42.301Z,3.10
2022-12-23T07:24:44.880Z,3.05
2022-12-23T07:26:47.658Z,2.70
2022-12-23T07:28:50.301Z,2.22
2022-12-23T07:30:52.931Z,2.53
2022-12-23T07:32:55.711Z,2.80
2022-12-23T07:34:59.746Z,2.20
2022-12-23T07:37:02.506Z,2.30
2022-12-23T07:39:05.433Z,2.53
2022-12-23T07:41:08.158Z,2.40
2022-12-23T07:43:11.366Z,2.22
2022-12-23T07:45:13.941Z,2.45
2022-12-23T07:47:16.886Z,3.42
2022-12-23T07:49:19.593Z,2.47
2022-12-23T07:51:23.606Z,2.97
2022-12-23T07:53:26.294Z,2.05
2022-12-23T07:55:28.972Z,2.75
2022-12-23T07:57:37.309Z,2.75
2022-12-23T07:59:40.005Z,2.53
2022-12-23T08:01:42.732Z,2.17
2022-12-23T08:03:45.597Z,1.90
2022-12-23T08:05:48.270Z,2.10
2022-12-23T08:07:52.715Z,2.13
2022-12-23T08:09:55.317Z,2.00
2022-12-23T08:11:57.963Z,2.40
2022-12-23T08:14:00.646Z,2.35
2022-12-23T08:16:05.126Z,2.30
2022-12-23T08:18:07.946Z,2.42
2022-12-23T08:20:11.338Z,3.40
2022-12-23T08:22:14.180Z,2.75
2022-12-23T08:24:18.193Z,2.47
2022-12-23T08:26:22.612Z,1.90
2022-12-23T08:28:25.312Z,2.75
2022-12-23T08:30:28.069Z,3.17
2022-12-23T08:32:31.045Z,2.47
2022-12-23T08:34:34.344Z,2.50
2022-12-23T08:36:37.626Z,5.38
2022-12-23T08:38:40.532Z,2.40
2022-12-23T08:40:44.596Z,2.00
2022-12-23T08:42:47.226Z,3.03
2022-12-23T08:44:49.914Z,2.95
2022-12-23T08:46:52.718Z,2.20
2022-12-23T08:48:55.532Z,3.30
2022-12-23T08:50:58.370Z,2.40
2022-12-23T08:53:01.029Z,3.58
2022-12-23T08:55:03.745Z,2.50
2022-12-23T08:57:07.816Z,2.67
2022-12-23T08:59:18.752Z,2.47
2022-12-23T09:01:23.848Z,2.10
2022-12-23T09:03:26.717Z,2.22
2022-12-23T09:05:29.759Z,2.03
2022-12-23T09:07:33.308Z,2.15
2022-12-23T09:09:36.506Z,2.53
2022-12-23T09:11:39.923Z,2.65
2022-12-23T09:13:44.317Z,2.58
2022-12-23T09:15:47.129Z,2.30
2022-12-23T09:17:49.996Z,2.42
2022-12-23T09:19:53.358Z,2.95
2022-12-23T09:21:56.539Z,2.70
2022-12-23T09:23:59.295Z,2.33
2022-12-23T09:26:02.095Z,2.50
2022-12-23T09:28:05.313Z,2.25
2022-12-23T09:30:11.296Z,2.20
2022-12-23T09:32:13.988Z,1.92
2022-12-23T09:34:16.719Z,1.65
2022-12-23T09:36:20.466Z,1.58
2022-12-23T09:38:23.084Z,1.38
2022-12-23T09:40:26.025Z,1.75
2022-12-23T09:42:47.022Z,1.45
2022-12-23T09:45:05.309Z,1.92
2022-12-23T09:47:16.542Z,1.83
2022-12-23T09:49:21.314Z,1.92
2022-12-23T09:51:24.662Z,1.75
2022-12-23T09:53:36.743Z,1.70
2022-12-23T09:55:47.493Z,1.58
2022-12-23T09:57:56.704Z,1.35
2022-12-23T10:00:08.620Z,1.38
2022-12-23T10:02:22.496Z,1.50
2022-12-23T10:04:35.883Z,1.85
2022-12-23T10:06:40.496Z,1.25
2022-12-23T10:08:47.659Z,1.50
2022-12-23T10:10:53.516Z,1.50
2022-12-23T10:12:59.161Z,1.63
2022-12-23T10:15:04.500Z,1.20
2022-12-23T10:17:15.548Z,0.90
2022-12-23T10:19:24.517Z,1.25
2022-12-23T10:21:33.338Z,1.15
2022-12-23T10:23:39.379Z,1.30
2022-12-23T10:25:50.583Z,1.08
2022-12-23T10:27:53.271Z,1.13
2022-12-23T10:29:56.656Z,3.25
2022-12-23T10:32:13.848Z,1.05
2022-12-23T10:34:23.526Z,2.35
2022-12-23T10:36:37.591Z,1.15
2022-12-23T10:38:52.158Z,1.00
2022-12-23T10:41:07.072Z,1.15
2022-12-23T10:43:18.722Z,0.98
2022-12-23T10:45:39.592Z,1.40
2022-12-23T10:47:51.944Z,0.90
2022-12-23T10:50:10.225Z,0.95
2022-12-23T10:52:17.477Z,1.05
2022-12-23T10:54:24.848Z,1.00
2022-12-23T10:56:29.662Z,0.98
2022-12-23T10:58:32.446Z,1.00
2022-12-23T11:00:39.881Z,0.95
2022-12-23T11:02:50.733Z,0.88
2022-12-23T11:04:55.775Z,0.90
2022-12-23T11:07:34.263Z,1.02
2022-12-23T11:09:25.882Z,0.93
2022-12-23T11:11:54.143Z,1.20
2022-12-23T11:13:56.767Z,0.90
2022-12-23T11:16:13.105Z,1.20
2022-12-23T11:18:25.266Z,1.30
2022-12-23T11:20:37.127Z,1.10
2022-12-23T11:22:50.304Z,2.63
2022-12-23T11:24:58.106Z,1.20
2022-12-23T11:27:08.647Z,1.40
2022-12-23T11:29:15.527Z,1.27
2022-12-23T11:31:28.243Z,1.20
2022-12-23T11:33:40.793Z,1.20
2022-12-23T11:35:54.165Z,1.20
2022-12-23T11:38:00.308Z,1.40
2022-12-23T11:40:05.524Z,1.52
2022-12-23T11:42:15.846Z,0.90
2022-12-23T11:44:24.806Z,1.13
2022-12-23T11:46:30.226Z,0.90
2022-12-23T11:48:32.875Z,1.30
2022-12-23T11:50:43.662Z,1.30
2022-12-23T11:52:53.299Z,0.85
2022-12-23T11:55:04.841Z,1.25
2022-12-23T11:57:16.325Z,1.40
2022-12-23T11:59:33.797Z,1.10
2022-12-23T12:01:58.466Z,0.85
2022-12-23T12:04:04.208Z,1.10
2022-12-23T12:06:08.090Z,0.85
2022-12-23T12:08:15.639Z,1.10
2022-12-23T12:10:26.347Z,1.13
2022-12-23T12:12:29.819Z,0.82
2022-12-23T12:14:37.582Z,1.20
2022-12-23T12:16:58.846Z,1.27
2022-12-23T12:19:05.347Z,0.95
2022-12-23T12:21:13.932Z,0.80
2022-12-23T12:23:26.550Z,1.00
2022-12-23T12:25:39.917Z,1.00
2022-12-23T12:27:49.357Z,0.75
2022-12-23T12:29:56.755Z,0.82
2022-12-23T12:32:01.125Z,0.88
2022-12-23T12:34:13.732Z,0.70
2022-12-23T12:41:24.785Z,0.75
2022-12-23T12:43:33.557Z,1.67
2022-12-23T12:45:52.494Z,3.60
2022-12-23T12:48:29.870Z,1.20
2022-12-23T12:50:48.673Z,1.10
2022-12-23T12:53:04.625Z,1.00
2022-12-23T12:55:23.002Z,1.02
2022-12-23T12:57:42.534Z,0.90
2022-12-23T13:00:03.557Z,1.48
2022-12-23T13:02:46.562Z,1.30
2022-12-23T13:05:22.012Z,1.10
2022-12-23T13:07:43.555Z,1.13
2022-12-23T13:10:06.276Z,1.25
2022-12-23T13:14:51.608Z,1.08
2022-12-23T13:17:03.556Z,1.00
2022-12-23T13:19:18.414Z,1.08
2022-12-23T13:21:25.145Z,0.90
2022-12-23T13:23:44.661Z,0.98
2022-12-23T13:25:54.200Z,0.90
2022-12-23T13:27:59.022Z,1.02
2022-12-23T13:30:12.049Z,1.40
2022-12-23T13:32:23.605Z,1.08
2022-12-23T13:34:36.533Z,0.85
2022-12-23T13:36:50.640Z,1.00
2022-12-23T13:39:07.833Z,1.20
2022-12-23T13:41:23.066Z,1.00
2022-12-23T13:43:29.649Z,1.17
2022-12-23T13:47:48.211Z,1.35
2022-12-23T13:50:00.577Z,1.20
2022-12-23T13:52:11.073Z,1.10
2022-12-23T13:54:23.466Z,0.95
2022-12-23T13:56:31.679Z,1.20
2022-12-23T13:58:34.612Z,1.30
2022-12-23T14:00:38.770Z,0.93
2022-12-23T14:02:43.988Z,0.88
2022-12-23T14:04:59.850Z,1.08
2022-12-23T14:07:05.975Z,0.88
2022-12-23T14:09:12.887Z,0.80
2022-12-23T14:11:19.708Z,1.00
2022-12-23T14:13:26.066Z,0.88
2022-12-23T14:15:47.141Z,0.90
2022-12-23T14:18:05.040Z,0.80
2022-12-23T14:20:23.622Z,1.10
2022-12-23T14:25:17.052Z,1.65
2022-12-23T14:27:37.398Z,0.98
2022-12-23T14:29:50.886Z,0.80
2022-12-23T14:31:57.981Z,0.93
2022-12-23T14:34:22.997Z,1.00
2022-12-23T14:36:28.268Z,1.02
2022-12-23T14:38:33.027Z,1.15
2022-12-23T14:41:01.890Z,0.82
2022-12-23T14:43:25.958Z,1.05
2022-12-23T14:45:36.506Z,0.88
2022-12-23T14:47:45.755Z,0.90
2022-12-23T14:49:48.774Z,0.70
2022-12-23T14:51:51.740Z,0.90
2022-12-23T14:54:15.903Z,0.73
2022-12-23T14:56:33.019Z,0.90
2022-12-23T14:58:52.081Z,1.15
2022-12-23T15:01:02.730Z,1.00
2022-12-23T15:03:06.806Z,1.02
2022-12-23T15:05:09.791Z,0.88
2022-12-23T15:07:17.815Z,1.00
2022-12-23T15:09:25.944Z,2.58
2022-12-23T15:11:31.187Z,1.20
2022-12-23T15:13:34.515Z,1.30
2022-12-23T15:15:37.118Z,1.55
2022-12-23T15:17:39.839Z,1.83
2022-12-23T15:19:47.935Z,1.60
2022-12-23T15:22:00.283Z,1.08
2022-12-23T15:24:06.333Z,1.00
2022-12-23T15:26:10.870Z,0.88
2022-12-23T15:28:19.591Z,1.20
2022-12-23T15:30:23.177Z,1.10
2022-12-23T15:32:28.813Z,1.35
2022-12-23T15:34:34.467Z,1.58
2022-12-23T15:36:40.445Z,0.73
2022-12-23T15:38:44.129Z,0.93
2022-12-23T15:41:01.365Z,0.90
2022-12-23T15:43:16.956Z,0.90
2022-12-23T15:45:32.685Z,0.90
2022-12-23T15:47:39.489Z,0.80
2022-12-23T15:49:42.149Z,0.85
2022-12-23T15:52:07.127Z,0.95
2022-12-23T15:54:22.398Z,1.00
2022-12-23T15:56:27.520Z,0.80
2022-12-23T15:58:33.579Z,0.98
2022-12-23T16:00:41.225Z,1.10
2022-12-23T16:03:03.160Z,1.00
2022-12-23T16:05:07.222Z,0.80
2022-12-23T16:07:26.402Z,1.00
2022-12-23T16:09:35.228Z,0.90
2022-12-23T16:11:41.614Z,0.80
2022-12-23T16:13:58.517Z,0.93
2022-12-23T16:16:38.407Z,0.70
2022-12-23T16:18:47.249Z,0.60
2022-12-23T16:20:54.578Z,0.70
2022-12-23T16:23:03.348Z,0.63
2022-12-23T16:25:13.341Z,1.00
2022-12-23T16:27:18.862Z,0.60
2022-12-23T16:29:22.080Z,0.80
2022-12-23T16:31:24.911Z,1.02
2022-12-23T16:33:39.710Z,0.90
2022-12-23T16:35:43.978Z,0.80
2022-12-23T16:37:51.072Z,0.63
2022-12-23T16:39:56.722Z,0.73
2022-12-23T16:41:59.401Z,1.00
2022-12-23T16:44:02.375Z,0.80
2022-12-23T16:46:05.910Z,0.90
2022-12-23T16:48:12.398Z,1.00
2022-12-23T16:50:16.099Z,0.80
2022-12-23T16:52:18.892Z,0.90
2022-12-23T16:54:21.594Z,0.80
2022-12-23T16:56:30.814Z,0.90
2022-12-23T16:58:33.496Z,0.75
2022-12-23T17:00:36.682Z,0.70
2022-12-23T17:02:39.477Z,0.80
2022-12-23T17:04:42.354Z,0.82
2022-12-23T17:06:46.582Z,0.73
2022-12-23T17:08:49.840Z,0.77
2022-12-23T17:10:53.067Z,0.60
2022-12-23T17:12:57.152Z,0.90
2022-12-23T17:14:59.769Z,0.90
2022-12-23T17:17:02.905Z,0.65
2022-12-23T17:19:05.893Z,0.70
2022-12-23T17:21:17.892Z,0.57
2022-12-23T17:23:27.822Z,0.60
2022-12-23T17:25:30.504Z,0.73
2022-12-23T17:27:33.235Z,0.80
2022-12-23T17:29:37.246Z,0.70
2022-12-23T17:31:40.725Z,1.60
2022-12-23T17:33:43.399Z,1.40
2022-12-23T17:35:46.111Z,1.10
2022-12-23T17:37:48.867Z,1.10
2022-12-23T17:39:51.540Z,0.90
2022-12-23T17:41:55.394Z,0.95
2022-12-23T17:43:58.913Z,1.30
2022-12-23T17:46:03.011Z,0.77
2022-12-23T17:48:06.385Z,0.75
2022-12-23T17:50:10.386Z,0.73
2022-12-23T17:52:17.567Z,0.68
2022-12-23T17:54:24.295Z,0.77
2022-12-23T17:56:29.241Z,0.90
2022-12-23T17:58:31.955Z,0.57
2022-12-23T18:00:35.163Z,0.68
2022-12-23T18:02:39.349Z,0.68
2022-12-23T18:04:42.030Z,0.70
2022-12-23T18:06:44.716Z,0.75
2022-12-23T18:08:47.714Z,0.73
2022-12-23T18:10:50.566Z,0.80
2022-12-23T18:12:55.555Z,0.90
2022-12-23T18:14:58.540Z,1.10
2022-12-23T18:17:02.474Z,0.90
2022-12-23T18:19:11.367Z,0.90
2022-12-23T18:21:18.223Z,0.93
2022-12-23T18:23:24.438Z,1.10
2022-12-23T18:25:28.189Z,1.10
2022-12-23T18:27:30.906Z,0.88
2022-12-23T18:29:33.620Z,0.80
2022-12-23T18:31:37.223Z,0.93
2022-12-23T18:33:39.903Z,0.68
2022-12-23T18:35:45.738Z,0.90
2022-12-23T18:37:48.415Z,1.00
2022-12-23T18:39:51.194Z,0.70
2022-12-23T18:41:53.849Z,0.80
2022-12-23T18:43:56.666Z,0.90
2022-12-23T18:45:59.391Z,0.85
2022-12-23T18:48:03.169Z,0.75
2022-12-23T18:50:06.668Z,0.70
2022-12-23T18:52:13.380Z,0.90
2022-12-23T18:54:17.164Z,0.88
2022-12-23T18:56:21.297Z,0.60
2022-12-23T18:58:24.614Z,0.93
2022-12-23T19:00:30.325Z,0.80
2022-12-23T19:02:33.070Z,0.90
2022-12-23T19:04:35.769Z,0.70
2022-12-23T19:06:39.033Z,1.00
2022-12-23T19:08:43.908Z,0.60
2022-12-23T19:10:47.813Z,0.60
2022-12-23T19:12:51.206Z,0.75
2022-12-23T19:14:53.842Z,0.93
2022-12-23T19:16:59.896Z,0.60
2022-12-23T19:19:02.500Z,0.50
2022-12-23T19:21:05.741Z,0.52
2022-12-23T19:23:08.552Z,0.68
2022-12-23T19:25:16.154Z,0.88
2022-12-23T19:27:18.859Z,0.88
2022-12-23T19:29:21.474Z,0.90
2022-12-23T19:31:24.225Z,1.52
2022-12-23T19:33:26.965Z,0.60
2022-12-23T19:35:29.667Z,0.80
2022-12-23T19:37:33.321Z,0.70
2022-12-23T19:39:36.104Z,0.80
2022-12-23T19:41:40.042Z,0.80
2022-12-23T19:43:45.163Z,0.55
2022-12-23T19:45:57.661Z,0.70
2022-12-23T19:50:03.219Z,0.90
2022-12-23T19:52:06.223Z,0.80
2022-12-23T19:54:09.077Z,0.80
2022-12-23T19:56:13.210Z,0.90
2022-12-23T19:58:17.281Z,0.93
2022-12-23T20:00:20.277Z,1.90
2022-12-23T20:02:23.420Z,1.60
2022-12-23T20:04:26.332Z,1.10
2022-12-23T20:06:31.187Z,1.00
2022-12-23T20:08:34.308Z,1.20
2022-12-23T20:10:36.899Z,2.28
2022-12-23T20:12:42.562Z,1.10
2022-12-23T20:14:46.731Z,1.20
2022-12-23T20:16:49.922Z,1.00
2022-12-23T20:18:52.872Z,1.17
2022-12-23T20:20:55.608Z,1.10
2022-12-23T20:22:58.595Z,1.00
2022-12-23T20:25:01.343Z,1.02
2022-12-23T20:27:09.308Z,0.80
2022-12-23T20:29:14.266Z,0.93
2022-12-23T20:31:22.113Z,1.10
2022-12-23T20:33:24.939Z,0.90
2022-12-23T20:35:27.612Z,0.95
2022-12-23T20:37:30.346Z,0.90
2022-12-23T20:39:33.031Z,0.77
2022-12-23T20:41:35.793Z,0.82
2022-12-23T20:43:38.579Z,0.68
2022-12-23T20:45:42.951Z,0.50
2022-12-23T20:47:46.989Z,0.60
2022-12-23T20:49:49.640Z,0.50
2022-12-23T20:51:52.226Z,0.50
2022-12-23T20:53:59.538Z,0.55
2022-12-23T20:56:02.417Z,0.70
2022-12-23T20:58:18.961Z,0.50
2022-12-23T21:00:22.091Z,0.57
2022-12-23T21:02:24.861Z,0.60
2022-12-23T21:04:28.939Z,0.80
2022-12-23T21:06:32.753Z,0.60
2022-12-23T21:08:36.181Z,0.57
2022-12-23T21:10:39.472Z,0.60
2022-12-23T21:12:42.149Z,0.70
2022-12-23T21:14:44.801Z,0.68
2022-12-23T21:16:47.646Z,0.70
2022-12-23T21:18:53.120Z,0.90
2022-12-23T21:21:00.908Z,0.90
2022-12-23T21:23:03.675Z,0.63
2022-12-23T21:25:07.162Z,0.90
2022-12-23T21:27:09.836Z,0.80
2022-12-23T21:29:14.980Z,0.90
2022-12-23T21:31:20.182Z,0.70
2022-12-23T21:33:22.803Z,1.40
2022-12-23T21:35:25.420Z,1.00
2022-12-23T21:37:29.835Z,1.08
2022-12-23T21:39:32.749Z,0.90
2022-12-23T21:41:37.806Z,1.00
2022-12-23T21:43:40.437Z,0.90
2022-12-23T21:45:43.098Z,1.08
2022-12-23T21:47:45.707Z,1.20
2022-12-23T21:49:48.301Z,0.77
2022-12-23T21:51:51.060Z,1.30
2022-12-23T21:53:57.204Z,2.38
2022-12-23T21:56:02.367Z,1.23
2022-12-23T21:58:05.038Z,0.88
2022-12-23T22:00:08.896Z,1.00
2022-12-23T22:02:15.732Z,1.17
2022-12-23T22:04:18.469Z,1.10
2022-12-23T22:06:23.130Z,1.20
2022-12-23T22:08:25.769Z,0.95
2022-12-23T22:10:29.777Z,0.93
2022-12-23T22:12:32.401Z,1.00
2022-12-23T22:14:35.068Z,1.40
2022-12-23T22:16:37.773Z,1.00
2022-12-23T22:18:41.397Z,1.20
2022-12-23T22:20:46.318Z,0.90
2022-12-23T22:22:49.414Z,1.10
2022-12-23T22:24:52.047Z,1.00
2022-12-23T22:26:56.048Z,0.90
2022-12-23T22:29:00.206Z,0.90
2022-12-23T22:31:03.568Z,1.20
2022-12-23T22:33:08.541Z,0.88
2022-12-23T22:35:11.438Z,0.98
2022-12-23T22:37:14.111Z,1.10
2022-12-23T22:39:21.217Z,1.10
2022-12-23T22:41:25.831Z,1.00
2022-12-23T22:43:29.823Z,0.90
2022-12-23T22:45:32.486Z,0.90
2022-12-23T22:47:35.248Z,0.88
2022-12-23T22:49:37.964Z,1.10
2022-12-23T22:51:41.728Z,1.52
2022-12-23T22:53:44.553Z,1.27
2022-12-23T22:55:47.169Z,0.90
2022-12-23T22:57:49.886Z,0.90
2022-12-23T22:59:53.946Z,0.90
2022-12-23T23:01:56.669Z,0.90
2022-12-23T23:04:01.785Z,0.80
2022-12-23T23:06:07.834Z,0.88
2022-12-23T23:08:12.221Z,0.77
2022-12-23T23:10:15.367Z,0.70
2022-12-23T23:12:18.078Z,0.90
2022-12-23T23:14:21.164Z,1.00
2022-12-23T23:16:26.499Z,1.13
2022-12-23T23:18:29.951Z,1.10
2022-12-23T23:20:32.639Z,1.05
2022-12-23T23:22:35.293Z,0.95
2022-12-23T23:24:38.012Z,0.80
2022-12-23T23:26:40.706Z,1.70
2022-12-23T23:28:44.290Z,1.40
2022-12-23T23:30:46.952Z,1.27
2022-12-23T23:32:50.963Z,0.85
2022-12-23T23:34:53.617Z,0.90
2022-12-23T23:36:56.514Z,0.90
2022-12-23T23:38:59.153Z,1.10
2022-12-23T23:41:01.941Z,1.00
2022-12-23T23:43:04.796Z,1.48
2022-12-23T23:45:08.429Z,0.70
2022-12-23T23:47:11.045Z,1.00
2022-12-23T23:49:15.958Z,1.02
2022-12-23T23:51:18.579Z,0.88
2022-12-23T23:53:21.219Z,0.90
2022-12-23T23:55:23.819Z,1.00
2022-12-23T23:57:26.760Z,1.10
2022-12-23T23:59:29.914Z,1.15
